sensor_id;sensor_type;location;lat;lon;timestamp;temperature;humidity
38436;DHT22;24220;48.168;14.024;2022-11-15T00:01:15;12.30;66.00
38436;DHT22;24220;48.168;14.024;2022-11-15T00:03:44;12.30;66.30
38436;DHT22;24220;48.168;14.024;2022-11-15T00:06:11;12.30;66.00
38436;DHT22;24220;48.168;14.024;2022-11-15T00:08:41;12.30;66.00
38436;DHT22;24220;48.168;14.024;2022-11-15T00:11:12;12.30;66.00
38436;DHT22;24220;48.168;14.024;2022-11-15T00:13:41;12.20;66.10
38436;DHT22;24220;48.168;14.024;2022-11-15T00:16:09;12.20;66.10
38436;DHT22;24220;48.168;14.024;2022-11-15T00:18:38;12.20;66.20
38436;DHT22;24220;48.168;14.024;2022-11-15T00:21:13;12.20;66.10
38436;DHT22;24220;48.168;14.024;2022-11-15T00:23:40;12.10;66.00
38436;DHT22;24220;48.168;14.024;2022-11-15T00:26:11;12.10;66.00
38436;DHT22;24220;48.168;14.024;2022-11-15T00:28:41;12.10;66.00
38436;DHT22;24220;48.168;14.024;2022-11-15T00:31:12;12.10;66.10
38436;DHT22;24220;48.168;14.024;2022-11-15T00:33:39;12.10;66.10
38436;DHT22;24220;48.168;14.024;2022-11-15T00:36:09;12.00;66.00
38436;DHT22;24220;48.168;14.024;2022-11-15T00:38:39;12.10;65.90
38436;DHT22;24220;48.168;14.024;2022-11-15T00:41:07;12.00;65.80
38436;DHT22;24220;48.168;14.024;2022-11-15T00:43:36;12.00;65.80
38436;DHT22;24220;48.168;14.024;2022-11-15T00:46:04;12.00;65.90
38436;DHT22;24220;48.168;14.024;2022-11-15T00:48:31;12.00;65.80
38436;DHT22;24220;48.168;14.024;2022-11-15T00:50:58;12.00;65.90
38436;DHT22;24220;48.168;14.024;2022-11-15T00:53:26;12.00;65.90
38436;DHT22;24220;48.168;14.024;2022-11-15T00:55:53;11.90;65.80
38436;DHT22;24220;48.168;14.024;2022-11-15T00:58:23;12.00;65.90
38436;DHT22;24220;48.168;14.024;2022-11-15T01:00:50;11.90;65.80
38436;DHT22;24220;48.168;14.024;2022-11-15T01:03:18;11.90;65.80
38436;DHT22;24220;48.168;14.024;2022-11-15T01:05:45;11.90;65.70
38436;DHT22;24220;48.168;14.024;2022-11-15T01:08:14;11.90;65.60
38436;DHT22;24220;48.168;14.024;2022-11-15T01:10:41;11.90;65.70
38436;DHT22;24220;48.168;14.024;2022-11-15T01:13:09;11.90;65.80
38436;DHT22;24220;48.168;14.024;2022-11-15T01:15:39;11.90;65.80
38436;DHT22;24220;48.168;14.024;2022-11-15T01:18:07;11.90;65.80
38436;DHT22;24220;48.168;14.024;2022-11-15T01:20:42;11.80;65.60
38436;DHT22;24220;48.168;14.024;2022-11-15T01:23:13;11.80;65.50
38436;DHT22;24220;48.168;14.024;2022-11-15T01:25:42;11.80;65.70
38436;DHT22;24220;48.168;14.024;2022-11-15T01:28:12;11.80;65.60
38436;DHT22;24220;48.168;14.024;2022-11-15T01:30:39;11.80;65.60
38436;DHT22;24220;48.168;14.024;2022-11-15T01:33:06;11.80;65.60
38436;DHT22;24220;48.168;14.024;2022-11-15T01:35:38;11.70;65.60
38436;DHT22;24220;48.168;14.024;2022-11-15T01:38:08;11.80;65.80
38436;DHT22;24220;48.168;14.024;2022-11-15T01:40:38;11.70;65.70
38436;DHT22;24220;48.168;14.024;2022-11-15T01:43:22;11.70;65.70
38436;DHT22;24220;48.168;14.024;2022-11-15T01:45:55;11.80;65.70
38436;DHT22;24220;48.168;14.024;2022-11-15T01:48:27;11.70;65.70
38436;DHT22;24220;48.168;14.024;2022-11-15T01:51:00;11.70;65.70
38436;DHT22;24220;48.168;14.024;2022-11-15T01:53:32;11.70;65.50
38436;DHT22;24220;48.168;14.024;2022-11-15T01:56:08;11.70;65.50
38436;DHT22;24220;48.168;14.024;2022-11-15T01:58:36;11.70;65.50
38436;DHT22;24220;48.168;14.024;2022-11-15T02:01:04;11.70;65.50
38436;DHT22;24220;48.168;14.024;2022-11-15T02:03:50;11.70;65.60
38436;DHT22;24220;48.168;14.024;2022-11-15T02:06:21;11.60;65.60
38436;DHT22;24220;48.168;14.024;2022-11-15T02:08:51;11.60;65.50
38436;DHT22;24220;48.168;14.024;2022-11-15T02:11:18;11.60;65.40
38436;DHT22;24220;48.168;14.024;2022-11-15T02:13:46;11.60;65.40
38436;DHT22;24220;48.168;14.024;2022-11-15T02:41:01;11.40;65.00
38436;DHT22;24220;48.168;14.024;2022-11-15T02:44:06;11.40;65.10
38436;DHT22;24220;48.168;14.024;2022-11-15T02:46:41;11.40;64.90
38436;DHT22;24220;48.168;14.024;2022-11-15T02:49:30;11.30;64.80
38436;DHT22;24220;48.168;14.024;2022-11-15T02:52:01;11.30;65.00
38436;DHT22;24220;48.168;14.024;2022-11-15T02:54:30;11.30;65.70
38436;DHT22;24220;48.168;14.024;2022-11-15T02:57:06;11.30;65.00
38436;DHT22;24220;48.168;14.024;2022-11-15T03:00:00;11.30;65.00
38436;DHT22;24220;48.168;14.024;2022-11-15T03:02:36;11.30;65.00
38436;DHT22;24220;48.168;14.024;2022-11-15T03:08:06;11.30;65.10
38436;DHT22;24220;48.168;14.024;2022-11-15T03:10:56;11.20;64.90
38436;DHT22;24220;48.168;14.024;2022-11-15T03:16:06;11.20;65.10
38436;DHT22;24220;48.168;14.024;2022-11-15T03:18:42;11.20;65.10
38436;DHT22;24220;48.168;14.024;2022-11-15T03:21:12;11.20;65.20
38436;DHT22;24220;48.168;14.024;2022-11-15T03:23:44;11.20;65.30
38436;DHT22;24220;48.168;14.024;2022-11-15T03:26:14;11.20;65.30
38436;DHT22;24220;48.168;14.024;2022-11-15T03:28:56;11.20;65.20
38436;DHT22;24220;48.168;14.024;2022-11-15T03:31:29;11.20;65.00
38436;DHT22;24220;48.168;14.024;2022-11-15T03:34:22;11.10;65.10
38436;DHT22;24220;48.168;14.024;2022-11-15T03:36:51;11.10;65.10
38436;DHT22;24220;48.168;14.024;2022-11-15T03:39:22;11.10;65.00
38436;DHT22;24220;48.168;14.024;2022-11-15T03:45:14;11.10;65.00
38436;DHT22;24220;48.168;14.024;2022-11-15T03:47:53;11.10;65.00
38436;DHT22;24220;48.168;14.024;2022-11-15T03:50:22;11.10;64.80
38436;DHT22;24220;48.168;14.024;2022-11-15T03:52:51;11.10;64.90
38436;DHT22;24220;48.168;14.024;2022-11-15T03:55:21;11.10;65.10
38436;DHT22;24220;48.168;14.024;2022-11-15T03:57:53;11.10;65.10
38436;DHT22;24220;48.168;14.024;2022-11-15T04:00:21;11.00;65.00
38436;DHT22;24220;48.168;14.024;2022-11-15T04:02:48;11.10;65.10
38436;DHT22;24220;48.168;14.024;2022-11-15T04:05:18;11.00;65.10
38436;DHT22;24220;48.168;14.024;2022-11-15T04:07:45;11.10;65.00
38436;DHT22;24220;48.168;14.024;2022-11-15T04:10:13;11.00;65.10
38436;DHT22;24220;48.168;14.024;2022-11-15T04:12:43;11.00;65.00
38436;DHT22;24220;48.168;14.024;2022-11-15T04:15:12;11.00;64.90
38436;DHT22;24220;48.168;14.024;2022-11-15T04:17:54;11.00;64.90
38436;DHT22;24220;48.168;14.024;2022-11-15T04:20:27;11.00;64.80
38436;DHT22;24220;48.168;14.024;2022-11-15T04:23:15;11.00;64.80
38436;DHT22;24220;48.168;14.024;2022-11-15T04:26:13;11.00;64.80
38436;DHT22;24220;48.168;14.024;2022-11-15T04:28:42;11.00;64.90
38436;DHT22;24220;48.168;14.024;2022-11-15T04:31:27;11.00;64.90
38436;DHT22;24220;48.168;14.024;2022-11-15T04:33:55;11.00;65.00
38436;DHT22;24220;48.168;14.024;2022-11-15T04:36:25;11.00;65.10
38436;DHT22;24220;48.168;14.024;2022-11-15T04:39:11;11.00;65.10
38436;DHT22;24220;48.168;14.024;2022-11-15T04:41:38;11.00;64.90
38436;DHT22;24220;48.168;14.024;2022-11-15T04:44:08;10.90;64.90
38436;DHT22;24220;48.168;14.024;2022-11-15T04:46:35;10.90;65.00
38436;DHT22;24220;48.168;14.024;2022-11-15T04:49:02;10.90;65.00
38436;DHT22;24220;48.168;14.024;2022-11-15T04:51:30;10.90;65.00
38436;DHT22;24220;48.168;14.024;2022-11-15T04:53:57;10.90;64.90
38436;DHT22;24220;48.168;14.024;2022-11-15T04:56:25;10.90;64.90
38436;DHT22;24220;48.168;14.024;2022-11-15T04:58:52;10.90;64.90
38436;DHT22;24220;48.168;14.024;2022-11-15T05:01:25;10.90;64.90
38436;DHT22;24220;48.168;14.024;2022-11-15T05:03:52;10.90;64.80
38436;DHT22;24220;48.168;14.024;2022-11-15T05:06:40;10.90;64.90
38436;DHT22;24220;48.168;14.024;2022-11-15T05:09:10;10.90;64.90
38436;DHT22;24220;48.168;14.024;2022-11-15T05:11:37;10.90;64.90
38436;DHT22;24220;48.168;14.024;2022-11-15T05:14:05;10.80;64.90
38436;DHT22;24220;48.168;14.024;2022-11-15T05:16:32;10.80;64.90
38436;DHT22;24220;48.168;14.024;2022-11-15T05:18:59;10.80;65.00
38436;DHT22;24220;48.168;14.024;2022-11-15T05:21:29;10.80;65.00
38436;DHT22;24220;48.168;14.024;2022-11-15T05:23:57;10.80;64.90
38436;DHT22;24220;48.168;14.024;2022-11-15T05:26:25;10.80;64.80
38436;DHT22;24220;48.168;14.024;2022-11-15T05:28:57;10.70;64.70
38436;DHT22;24220;48.168;14.024;2022-11-15T05:31:28;10.70;64.60
38436;DHT22;24220;48.168;14.024;2022-11-15T05:33:56;10.70;64.60
38436;DHT22;24220;48.168;14.024;2022-11-15T05:39:06;10.70;64.70
38436;DHT22;24220;48.168;14.024;2022-11-15T05:41:44;10.70;64.80
38436;DHT22;24220;48.168;14.024;2022-11-15T05:44:16;10.70;64.80
38436;DHT22;24220;48.168;14.024;2022-11-15T05:46:44;10.70;64.90
38436;DHT22;24220;48.168;14.024;2022-11-15T05:49:14;10.60;64.90
38436;DHT22;24220;48.168;14.024;2022-11-15T05:51:44;10.60;65.00
38436;DHT22;24220;48.168;14.024;2022-11-15T05:54:12;10.60;65.20
38436;DHT22;24220;48.168;14.024;2022-11-15T05:56:40;10.60;65.50
38436;DHT22;24220;48.168;14.024;2022-11-15T05:59:09;10.60;65.70
38436;DHT22;24220;48.168;14.024;2022-11-15T06:01:37;10.60;66.00
38436;DHT22;24220;48.168;14.024;2022-11-15T06:04:05;10.60;66.30
38436;DHT22;24220;48.168;14.024;2022-11-15T06:06:32;10.60;66.50
38436;DHT22;24220;48.168;14.024;2022-11-15T06:08:59;10.70;66.70
38436;DHT22;24220;48.168;14.024;2022-11-15T06:11:26;10.60;66.70
38436;DHT22;24220;48.168;14.024;2022-11-15T06:13:56;10.60;66.80
38436;DHT22;24220;48.168;14.024;2022-11-15T06:16:24;10.70;67.00
38436;DHT22;24220;48.168;14.024;2022-11-15T06:18:51;10.70;67.00
38436;DHT22;24220;48.168;14.024;2022-11-15T06:21:18;10.60;67.00
38436;DHT22;24220;48.168;14.024;2022-11-15T06:23:46;10.60;67.20
38436;DHT22;24220;48.168;14.024;2022-11-15T06:26:13;10.70;67.20
38436;DHT22;24220;48.168;14.024;2022-11-15T06:28:40;10.70;67.00
38436;DHT22;24220;48.168;14.024;2022-11-15T06:31:11;10.70;67.00
38436;DHT22;24220;48.168;14.024;2022-11-15T06:33:39;10.70;67.60
38436;DHT22;24220;48.168;14.024;2022-11-15T06:36:12;10.60;66.80
38436;DHT22;24220;48.168;14.024;2022-11-15T06:38:44;10.60;66.90
38436;DHT22;24220;48.168;14.024;2022-11-15T06:41:14;10.60;67.20
38436;DHT22;24220;48.168;14.024;2022-11-15T06:43:44;10.60;67.30
38436;DHT22;24220;48.168;14.024;2022-11-15T06:46:12;10.60;67.30
38436;DHT22;24220;48.168;14.024;2022-11-15T06:48:39;10.60;67.30
38436;DHT22;24220;48.168;14.024;2022-11-15T06:51:08;10.60;67.30
38436;DHT22;24220;48.168;14.024;2022-11-15T06:53:36;10.60;67.30
38436;DHT22;24220;48.168;14.024;2022-11-15T06:56:05;10.60;67.30
38436;DHT22;24220;48.168;14.024;2022-11-15T06:58:33;10.60;67.30
38436;DHT22;24220;48.168;14.024;2022-11-15T07:01:04;10.70;67.40
38436;DHT22;24220;48.168;14.024;2022-11-15T07:03:33;10.70;67.40
38436;DHT22;24220;48.168;14.024;2022-11-15T07:06:01;10.60;67.40
38436;DHT22;24220;48.168;14.024;2022-11-15T07:08:34;10.70;67.40
38436;DHT22;24220;48.168;14.024;2022-11-15T07:11:04;10.70;67.50
38436;DHT22;24220;48.168;14.024;2022-11-15T07:13:32;10.70;67.50
38436;DHT22;24220;48.168;14.024;2022-11-15T07:16:06;10.70;67.50
38436;DHT22;24220;48.168;14.024;2022-11-15T07:18:35;10.70;67.60
38436;DHT22;24220;48.168;14.024;2022-11-15T07:21:04;10.70;67.60
38436;DHT22;24220;48.168;14.024;2022-11-15T07:23:31;10.70;67.60
38436;DHT22;24220;48.168;14.024;2022-11-15T07:26:00;10.80;67.70
38436;DHT22;24220;48.168;14.024;2022-11-15T07:28:27;10.80;67.70
38436;DHT22;24220;48.168;14.024;2022-11-15T07:30:57;10.80;67.80
38436;DHT22;24220;48.168;14.024;2022-11-15T07:33:27;10.80;67.60
38436;DHT22;24220;48.168;14.024;2022-11-15T07:35:58;10.80;67.70
38436;DHT22;24220;48.168;14.024;2022-11-15T07:38:26;10.90;68.40
38436;DHT22;24220;48.168;14.024;2022-11-15T07:40:57;10.90;67.90
38436;DHT22;24220;48.168;14.024;2022-11-15T07:43:25;10.90;67.90
38436;DHT22;24220;48.168;14.024;2022-11-15T07:45:55;10.90;68.00
38436;DHT22;24220;48.168;14.024;2022-11-15T07:48:25;11.00;68.00
38436;DHT22;24220;48.168;14.024;2022-11-15T07:51:06;11.00;68.20
38436;DHT22;24220;48.168;14.024;2022-11-15T07:53:40;11.00;68.40
38436;DHT22;24220;48.168;14.024;2022-11-15T07:56:08;11.00;68.10
38436;DHT22;24220;48.168;14.024;2022-11-15T07:58:36;11.00;68.60
38436;DHT22;24220;48.168;14.024;2022-11-15T08:01:10;11.00;68.90
38436;DHT22;24220;48.168;14.024;2022-11-15T08:03:38;11.00;69.20
38436;DHT22;24220;48.168;14.024;2022-11-15T08:06:05;11.00;69.10
38436;DHT22;24220;48.168;14.024;2022-11-15T08:08:32;11.00;69.30
38436;DHT22;24220;48.168;14.024;2022-11-15T08:11:03;11.00;69.30
38436;DHT22;24220;48.168;14.024;2022-11-15T08:13:30;11.00;69.50
38436;DHT22;24220;48.168;14.024;2022-11-15T08:16:01;11.10;69.40
38436;DHT22;24220;48.168;14.024;2022-11-15T08:18:29;11.10;69.40
38436;DHT22;24220;48.168;14.024;2022-11-15T08:21:00;11.10;69.40
38436;DHT22;24220;48.168;14.024;2022-11-15T08:23:32;11.10;69.50
38436;DHT22;24220;48.168;14.024;2022-11-15T08:26:02;11.10;69.50
38436;DHT22;24220;48.168;14.024;2022-11-15T08:28:32;11.10;69.60
38436;DHT22;24220;48.168;14.024;2022-11-15T08:31:02;11.10;69.70
38436;DHT22;24220;48.168;14.024;2022-11-15T08:33:33;11.10;69.60
38436;DHT22;24220;48.168;14.024;2022-11-15T08:36:01;11.10;69.60
38436;DHT22;24220;48.168;14.024;2022-11-15T08:38:28;11.10;69.60
38436;DHT22;24220;48.168;14.024;2022-11-15T08:41:03;11.10;69.60
38436;DHT22;24220;48.168;14.024;2022-11-15T08:43:30;11.20;69.90
38436;DHT22;24220;48.168;14.024;2022-11-15T08:45:58;11.20;69.90
38436;DHT22;24220;48.168;14.024;2022-11-15T08:48:26;11.20;70.00
38436;DHT22;24220;48.168;14.024;2022-11-15T08:50:54;11.20;69.90
38436;DHT22;24220;48.168;14.024;2022-11-15T08:53:24;11.20;69.90
38436;DHT22;24220;48.168;14.024;2022-11-15T08:55:52;11.20;69.90
38436;DHT22;24220;48.168;14.024;2022-11-15T08:58:22;11.20;69.90
38436;DHT22;24220;48.168;14.024;2022-11-15T09:00:49;11.20;70.10
38436;DHT22;24220;48.168;14.024;2022-11-15T09:03:16;11.20;70.00
38436;DHT22;24220;48.168;14.024;2022-11-15T09:05:43;11.20;70.20
38436;DHT22;24220;48.168;14.024;2022-11-15T09:08:13;11.30;70.30
38436;DHT22;24220;48.168;14.024;2022-11-15T09:11:05;11.30;70.40
38436;DHT22;24220;48.168;14.024;2022-11-15T09:13:34;11.30;70.40
38436;DHT22;24220;48.168;14.024;2022-11-15T09:16:04;11.30;70.40
38436;DHT22;24220;48.168;14.024;2022-11-15T09:18:31;11.30;70.50
38436;DHT22;24220;48.168;14.024;2022-11-15T09:21:00;11.30;70.20
38436;DHT22;24220;48.168;14.024;2022-11-15T09:23:32;11.30;70.00
38436;DHT22;24220;48.168;14.024;2022-11-15T09:26:04;11.40;69.90
38436;DHT22;24220;48.168;14.024;2022-11-15T09:28:32;11.40;70.10
38436;DHT22;24220;48.168;14.024;2022-11-15T09:31:03;11.40;70.20
38436;DHT22;24220;48.168;14.024;2022-11-15T09:33:31;11.40;70.30
38436;DHT22;24220;48.168;14.024;2022-11-15T09:36:07;11.40;70.40
38436;DHT22;24220;48.168;14.024;2022-11-15T09:38:36;11.40;70.50
38436;DHT22;24220;48.168;14.024;2022-11-15T09:49:26;11.50;70.60
38436;DHT22;24220;48.168;14.024;2022-11-15T09:51:56;11.50;70.60
38436;DHT22;24220;48.168;14.024;2022-11-15T09:57:14;11.50;70.60
38436;DHT22;24220;48.168;14.024;2022-11-15T10:00:06;11.50;70.60
38436;DHT22;24220;48.168;14.024;2022-11-15T10:03:14;11.50;70.70
38436;DHT22;24220;48.168;14.024;2022-11-15T10:05:45;11.60;70.60
38436;DHT22;24220;48.168;14.024;2022-11-15T10:09:01;11.60;70.50
38436;DHT22;24220;48.168;14.024;2022-11-15T10:11:05;11.60;70.50
38436;DHT22;24220;48.168;14.024;2022-11-15T10:14:01;11.60;70.40
38436;DHT22;24220;48.168;14.024;2022-11-15T10:19:36;11.50;70.50
38436;DHT22;24220;48.168;14.024;2022-11-15T10:27:40;11.60;70.40
38436;DHT22;24220;48.168;14.024;2022-11-15T10:30:14;11.50;70.40
38436;DHT22;24220;48.168;14.024;2022-11-15T10:32:47;11.50;70.50
38436;DHT22;24220;48.168;14.024;2022-11-15T10:35:24;11.50;70.60
38436;DHT22;24220;48.168;14.024;2022-11-15T10:37:52;11.60;70.90
38436;DHT22;24220;48.168;14.024;2022-11-15T10:40:31;11.50;70.70
38436;DHT22;24220;48.168;14.024;2022-11-15T10:45:40;11.60;70.80
38436;DHT22;24220;48.168;14.024;2022-11-15T10:50:43;11.60;70.70
38436;DHT22;24220;48.168;14.024;2022-11-15T10:53:31;11.60;70.60
38436;DHT22;24220;48.168;14.024;2022-11-15T10:56:03;11.60;70.80
38436;DHT22;24220;48.168;14.024;2022-11-15T11:01:13;11.70;70.70
38436;DHT22;24220;48.168;14.024;2022-11-15T11:03:45;11.70;70.50
38436;DHT22;24220;48.168;14.024;2022-11-15T11:06:17;11.70;70.50
38436;DHT22;24220;48.168;14.024;2022-11-15T11:08:58;11.70;70.40
38436;DHT22;24220;48.168;14.024;2022-11-15T11:11:47;11.70;70.60
38436;DHT22;24220;48.168;14.024;2022-11-15T11:14:27;11.70;70.60
38436;DHT22;24220;48.168;14.024;2022-11-15T11:30:19;11.70;70.30
38436;DHT22;24220;48.168;14.024;2022-11-15T11:41:15;11.70;70.80
38436;DHT22;24220;48.168;14.024;2022-11-15T11:47:30;11.80;70.80
38436;DHT22;24220;48.168;14.024;2022-11-15T11:50:26;11.80;70.80
38436;DHT22;24220;48.168;14.024;2022-11-15T11:53:12;11.80;70.60
38436;DHT22;24220;48.168;14.024;2022-11-15T12:01:22;11.80;71.00
38436;DHT22;24220;48.168;14.024;2022-11-15T12:03:59;11.80;71.10
38436;DHT22;24220;48.168;14.024;2022-11-15T12:06:53;11.80;71.00
38436;DHT22;24220;48.168;14.024;2022-11-15T12:09:32;11.80;71.00
38436;DHT22;24220;48.168;14.024;2022-11-15T12:15:02;11.80;69.90
38436;DHT22;24220;48.168;14.024;2022-11-15T12:17:32;11.80;70.40
38436;DHT22;24220;48.168;14.024;2022-11-15T12:20:02;11.70;70.30
38436;DHT22;24220;48.168;14.024;2022-11-15T12:25:47;11.70;70.40
38436;DHT22;24220;48.168;14.024;2022-11-15T12:33:44;11.70;70.80
38436;DHT22;24220;48.168;14.024;2022-11-15T12:36:37;11.70;70.80
38436;DHT22;24220;48.168;14.024;2022-11-15T12:39:09;11.70;71.00
38436;DHT22;24220;48.168;14.024;2022-11-15T12:41:39;11.70;70.80
38436;DHT22;24220;48.168;14.024;2022-11-15T12:52:07;11.70;71.00
38436;DHT22;24220;48.168;14.024;2022-11-15T12:59:56;11.70;70.50
38436;DHT22;24220;48.168;14.024;2022-11-15T13:20:55;11.70;71.00
38436;DHT22;24220;48.168;14.024;2022-11-15T13:23:28;11.80;70.90
38436;DHT22;24220;48.168;14.024;2022-11-15T13:28:47;11.80;71.00
38436;DHT22;24220;48.168;14.024;2022-11-15T13:31:40;11.80;70.90
38436;DHT22;24220;48.168;14.024;2022-11-15T13:34:31;11.70;70.90
38436;DHT22;24220;48.168;14.024;2022-11-15T13:39:49;11.80;70.80
38436;DHT22;24220;48.168;14.024;2022-11-15T13:42:21;11.80;70.90
38436;DHT22;24220;48.168;14.024;2022-11-15T13:45:00;11.80;71.00
38436;DHT22;24220;48.168;14.024;2022-11-15T13:47:28;11.80;71.00
38436;DHT22;24220;48.168;14.024;2022-11-15T13:49:59;11.80;70.90
38436;DHT22;24220;48.168;14.024;2022-11-15T13:52:32;11.80;71.00
38436;DHT22;24220;48.168;14.024;2022-11-15T13:57:53;11.80;71.00
38436;DHT22;24220;48.168;14.024;2022-11-15T14:02:55;11.80;71.00
38436;DHT22;24220;48.168;14.024;2022-11-15T14:05:24;11.80;71.00
38436;DHT22;24220;48.168;14.024;2022-11-15T14:08:00;11.80;71.10
38436;DHT22;24220;48.168;14.024;2022-11-15T14:10:29;11.80;71.30
38436;DHT22;24220;48.168;14.024;2022-11-15T14:12:58;11.80;71.30
38436;DHT22;24220;48.168;14.024;2022-11-15T14:15:34;11.80;71.30
38436;DHT22;24220;48.168;14.024;2022-11-15T14:18:02;11.90;71.50
38436;DHT22;24220;48.168;14.024;2022-11-15T14:20:32;11.90;71.40
38436;DHT22;24220;48.168;14.024;2022-11-15T14:23:17;11.90;71.50
38436;DHT22;24220;48.168;14.024;2022-11-15T14:25:58;11.90;71.30
38436;DHT22;24220;48.168;14.024;2022-11-15T14:30:56;11.90;71.10
38436;DHT22;24220;48.168;14.024;2022-11-15T14:33:36;11.90;71.10
38436;DHT22;24220;48.168;14.024;2022-11-15T14:36:14;11.90;71.10
38436;DHT22;24220;48.168;14.024;2022-11-15T14:38:42;11.90;71.10
38436;DHT22;24220;48.168;14.024;2022-11-15T14:41:22;11.90;71.10
38436;DHT22;24220;48.168;14.024;2022-11-15T14:43:51;11.90;71.20
38436;DHT22;24220;48.168;14.024;2022-11-15T14:46:21;11.80;71.10
38436;DHT22;24220;48.168;14.024;2022-11-15T14:48:50;11.80;71.20
38436;DHT22;24220;48.168;14.024;2022-11-15T14:51:18;11.80;71.20
38436;DHT22;24220;48.168;14.024;2022-11-15T14:53:46;11.90;71.30
38436;DHT22;24220;48.168;14.024;2022-11-15T14:56:16;11.80;71.30
38436;DHT22;24220;48.168;14.024;2022-11-15T14:58:46;11.80;71.30
38436;DHT22;24220;48.168;14.024;2022-11-15T15:01:23;11.80;71.30
38436;DHT22;24220;48.168;14.024;2022-11-15T15:03:52;11.80;71.30
38436;DHT22;24220;48.168;14.024;2022-11-15T15:06:24;11.90;71.40
38436;DHT22;24220;48.168;14.024;2022-11-15T15:08:51;11.80;71.40
38436;DHT22;24220;48.168;14.024;2022-11-15T15:11:24;11.80;71.40
38436;DHT22;24220;48.168;14.024;2022-11-15T15:13:52;11.90;71.50
38436;DHT22;24220;48.168;14.024;2022-11-15T15:16:24;11.80;71.40
38436;DHT22;24220;48.168;14.024;2022-11-15T15:18:54;11.80;71.40
38436;DHT22;24220;48.168;14.024;2022-11-15T15:21:26;11.80;71.50
38436;DHT22;24220;48.168;14.024;2022-11-15T15:24:03;11.80;71.50
38436;DHT22;24220;48.168;14.024;2022-11-15T15:26:31;11.80;71.40
38436;DHT22;24220;48.168;14.024;2022-11-15T15:29:03;11.90;71.40
38436;DHT22;24220;48.168;14.024;2022-11-15T15:31:33;11.90;71.40
38436;DHT22;24220;48.168;14.024;2022-11-15T15:34:01;11.80;71.30
38436;DHT22;24220;48.168;14.024;2022-11-15T15:36:28;11.80;71.30
38436;DHT22;24220;48.168;14.024;2022-11-15T15:38:56;11.80;71.30
38436;DHT22;24220;48.168;14.024;2022-11-15T15:41:25;11.80;71.40
38436;DHT22;24220;48.168;14.024;2022-11-15T15:43:55;11.80;71.40
38436;DHT22;24220;48.168;14.024;2022-11-15T15:46:22;11.80;71.40
38436;DHT22;24220;48.168;14.024;2022-11-15T15:48:52;11.80;71.50
38436;DHT22;24220;48.168;14.024;2022-11-15T15:51:21;11.80;71.50
38436;DHT22;24220;48.168;14.024;2022-11-15T15:53:49;11.80;71.50
38436;DHT22;24220;48.168;14.024;2022-11-15T15:56:17;11.70;71.50
38436;DHT22;24220;48.168;14.024;2022-11-15T15:58:51;11.70;71.50
38436;DHT22;24220;48.168;14.024;2022-11-15T16:01:19;11.80;71.60
38436;DHT22;24220;48.168;14.024;2022-11-15T16:03:47;11.80;71.70
38436;DHT22;24220;48.168;14.024;2022-11-15T16:08:59;11.70;71.70
38436;DHT22;24220;48.168;14.024;2022-11-15T16:11:43;11.70;71.60
38436;DHT22;24220;48.168;14.024;2022-11-15T16:14:11;11.70;71.50
38436;DHT22;24220;48.168;14.024;2022-11-15T16:16:38;11.70;71.60
38436;DHT22;24220;48.168;14.024;2022-11-15T16:19:11;11.70;71.80
38436;DHT22;24220;48.168;14.024;2022-11-15T16:21:39;11.70;71.80
38436;DHT22;24220;48.168;14.024;2022-11-15T16:24:06;11.70;71.80
38436;DHT22;24220;48.168;14.024;2022-11-15T16:26:37;11.70;71.80
38436;DHT22;24220;48.168;14.024;2022-11-15T16:29:08;11.70;71.80
38436;DHT22;24220;48.168;14.024;2022-11-15T16:31:39;11.70;71.80
38436;DHT22;24220;48.168;14.024;2022-11-15T16:34:11;11.70;71.70
38436;DHT22;24220;48.168;14.024;2022-11-15T16:36:41;11.70;71.60
38436;DHT22;24220;48.168;14.024;2022-11-15T16:39:12;11.70;71.60
38436;DHT22;24220;48.168;14.024;2022-11-15T16:41:45;11.70;71.60
38436;DHT22;24220;48.168;14.024;2022-11-15T16:44:14;11.70;71.70
38436;DHT22;24220;48.168;14.024;2022-11-15T16:46:42;11.70;71.70
38436;DHT22;24220;48.168;14.024;2022-11-15T16:49:13;11.70;71.70
38436;DHT22;24220;48.168;14.024;2022-11-15T16:51:45;11.70;71.80
38436;DHT22;24220;48.168;14.024;2022-11-15T16:54:15;11.70;71.90
38436;DHT22;24220;48.168;14.024;2022-11-15T16:56:42;11.70;71.90
38436;DHT22;24220;48.168;14.024;2022-11-15T16:59:14;11.60;72.00
38436;DHT22;24220;48.168;14.024;2022-11-15T17:01:43;11.70;72.10
38436;DHT22;24220;48.168;14.024;2022-11-15T17:04:18;11.70;72.10
38436;DHT22;24220;48.168;14.024;2022-11-15T17:06:46;11.70;72.20
38436;DHT22;24220;48.168;14.024;2022-11-15T17:09:16;11.70;72.30
38436;DHT22;24220;48.168;14.024;2022-11-15T17:11:44;11.70;72.40
38436;DHT22;24220;48.168;14.024;2022-11-15T17:14:12;11.70;72.30
38436;DHT22;24220;48.168;14.024;2022-11-15T17:16:40;11.70;72.40
38436;DHT22;24220;48.168;14.024;2022-11-15T17:19:16;11.60;72.50
38436;DHT22;24220;48.168;14.024;2022-11-15T17:21:45;11.70;72.70
38436;DHT22;24220;48.168;14.024;2022-11-15T17:24:12;11.70;72.70
38436;DHT22;24220;48.168;14.024;2022-11-15T17:26:40;11.70;72.60
38436;DHT22;24220;48.168;14.024;2022-11-15T17:29:08;11.70;72.50
38436;DHT22;24220;48.168;14.024;2022-11-15T17:31:38;11.60;72.50
38436;DHT22;24220;48.168;14.024;2022-11-15T17:34:05;11.60;72.60
38436;DHT22;24220;48.168;14.024;2022-11-15T17:36:34;11.60;72.70
38436;DHT22;24220;48.168;14.024;2022-11-15T17:39:02;11.60;72.80
38436;DHT22;24220;48.168;14.024;2022-11-15T17:41:30;11.60;72.70
38436;DHT22;24220;48.168;14.024;2022-11-15T17:43:59;11.60;72.70
38436;DHT22;24220;48.168;14.024;2022-11-15T17:46:28;11.60;72.70
38436;DHT22;24220;48.168;14.024;2022-11-15T17:48:56;11.60;72.70
38436;DHT22;24220;48.168;14.024;2022-11-15T17:51:24;11.60;72.80
38436;DHT22;24220;48.168;14.024;2022-11-15T17:53:52;11.60;72.90
38436;DHT22;24220;48.168;14.024;2022-11-15T17:56:21;11.60;72.90
38436;DHT22;24220;48.168;14.024;2022-11-15T17:58:53;11.60;73.00
38436;DHT22;24220;48.168;14.024;2022-11-15T18:01:26;11.60;72.90
38436;DHT22;24220;48.168;14.024;2022-11-15T18:03:55;11.60;73.00
38436;DHT22;24220;48.168;14.024;2022-11-15T18:06:23;11.60;73.00
38436;DHT22;24220;48.168;14.024;2022-11-15T18:08:52;11.60;73.00
38436;DHT22;24220;48.168;14.024;2022-11-15T18:11:27;11.60;73.00
38436;DHT22;24220;48.168;14.024;2022-11-15T18:13:58;11.60;73.10
38436;DHT22;24220;48.168;14.024;2022-11-15T18:16:27;11.60;73.10